sensor_id;sensor_type;location;lat;lon;timestamp;temperature;humidity
2929;DHT22;1474;51.460;7.150;2022-10-17T00:01:30;15.90;99.90
2929;DHT22;1474;51.460;7.150;2022-10-17T00:03:56;15.90;99.90
2929;DHT22;1474;51.460;7.150;2022-10-17T00:06:22;15.90;99.90
2929;DHT22;1474;51.460;7.150;2022-10-17T00:08:47;15.90;99.90
2929;DHT22;1474;51.460;7.150;2022-10-17T00:11:19;15.90;99.90
2929;DHT22;1474;51.460;7.150;2022-10-17T00:13:46;15.90;99.90
2929;DHT22;1474;51.460;7.150;2022-10-17T00:16:13;15.90;99.90
2929;DHT22;1474;51.460;7.150;2022-10-17T00:18:39;16.00;99.90
2929;DHT22;1474;51.460;7.150;2022-10-17T00:21:05;16.00;99.90
2929;DHT22;1474;51.460;7.150;2022-10-17T00:23:32;16.00;99.90
2929;DHT22;1474;51.460;7.150;2022-10-17T00:26:03;16.00;99.90
2929;DHT22;1474;51.460;7.150;2022-10-17T00:28:29;16.00;99.90
2929;DHT22;1474;51.460;7.150;2022-10-17T00:30:57;16.10;99.90
2929;DHT22;1474;51.460;7.150;2022-10-17T00:33:22;16.00;99.90
2929;DHT22;1474;51.460;7.150;2022-10-17T00:35:48;16.00;99.90
2929;DHT22;1474;51.460;7.150;2022-10-17T00:38:14;16.10;99.90
2929;DHT22;1474;51.460;7.150;2022-10-17T00:40:39;16.10;99.90
2929;DHT22;1474;51.460;7.150;2022-10-17T00:43:16;16.10;99.90
2929;DHT22;1474;51.460;7.150;2022-10-17T00:45:43;16.10;99.90
2929;DHT22;1474;51.460;7.150;2022-10-17T00:48:11;16.10;99.90
2929;DHT22;1474;51.460;7.150;2022-10-17T00:50:38;16.10;99.90
2929;DHT22;1474;51.460;7.150;2022-10-17T00:53:07;16.20;99.90
2929;DHT22;1474;51.460;7.150;2022-10-17T00:55:41;16.20;99.90
2929;DHT22;1474;51.460;7.150;2022-10-17T00:58:08;16.20;99.90
2929;DHT22;1474;51.460;7.150;2022-10-17T01:00:34;16.20;99.90
2929;DHT22;1474;51.460;7.150;2022-10-17T01:03:01;16.20;99.90
2929;DHT22;1474;51.460;7.150;2022-10-17T01:05:27;16.20;99.90
2929;DHT22;1474;51.460;7.150;2022-10-17T01:07:53;16.20;99.90
2929;DHT22;1474;51.460;7.150;2022-10-17T01:10:20;16.10;99.90
2929;DHT22;1474;51.460;7.150;2022-10-17T01:13:07;16.20;99.90
2929;DHT22;1474;51.460;7.150;2022-10-17T01:18:24;16.10;99.90
2929;DHT22;1474;51.460;7.150;2022-10-17T01:31:45;16.30;99.90
2929;DHT22;1474;51.460;7.150;2022-10-17T01:34:17;16.30;99.90
2929;DHT22;1474;51.460;7.150;2022-10-17T01:36:57;16.30;99.90
2929;DHT22;1474;51.460;7.150;2022-10-17T01:39:49;16.30;99.90
2929;DHT22;1474;51.460;7.150;2022-10-17T01:42:23;16.20;99.90
2929;DHT22;1474;51.460;7.150;2022-10-17T01:47:27;16.20;99.90
2929;DHT22;1474;51.460;7.150;2022-10-17T01:49:58;16.20;99.90
2929;DHT22;1474;51.460;7.150;2022-10-17T01:52:37;16.30;99.90
2929;DHT22;1474;51.460;7.150;2022-10-17T01:55:09;16.30;99.90
2929;DHT22;1474;51.460;7.150;2022-10-17T01:57:52;16.30;99.90
2929;DHT22;1474;51.460;7.150;2022-10-17T02:00:24;16.30;99.90
2929;DHT22;1474;51.460;7.150;2022-10-17T02:02:58;16.30;99.90
2929;DHT22;1474;51.460;7.150;2022-10-17T02:05:28;16.30;99.90
2929;DHT22;1474;51.460;7.150;2022-10-17T02:07:55;16.30;99.90
2929;DHT22;1474;51.460;7.150;2022-10-17T02:10:43;16.40;99.90
2929;DHT22;1474;51.460;7.150;2022-10-17T02:19:02;16.40;99.90
2929;DHT22;1474;51.460;7.150;2022-10-17T02:21:37;16.40;99.90
2929;DHT22;1474;51.460;7.150;2022-10-17T02:26:47;16.40;99.90
2929;DHT22;1474;51.460;7.150;2022-10-17T02:29:26;16.50;99.90
2929;DHT22;1474;51.460;7.150;2022-10-17T02:32:03;16.50;99.90
2929;DHT22;1474;51.460;7.150;2022-10-17T02:34:37;16.50;99.90
2929;DHT22;1474;51.460;7.150;2022-10-17T02:37:06;16.50;99.90
2929;DHT22;1474;51.460;7.150;2022-10-17T02:39:33;16.40;99.90
2929;DHT22;1474;51.460;7.150;2022-10-17T02:42:03;16.50;99.90
2929;DHT22;1474;51.460;7.150;2022-10-17T02:44:31;16.50;99.90
2929;DHT22;1474;51.460;7.150;2022-10-17T02:47:15;16.50;99.90
2929;DHT22;1474;51.460;7.150;2022-10-17T02:49:54;16.50;99.90
2929;DHT22;1474;51.460;7.150;2022-10-17T02:52:27;16.60;99.90
2929;DHT22;1474;51.460;7.150;2022-10-17T02:55:25;16.60;99.90
2929;DHT22;1474;51.460;7.150;2022-10-17T02:57:56;16.60;99.90
2929;DHT22;1474;51.460;7.150;2022-10-17T03:00:25;16.60;99.90
2929;DHT22;1474;51.460;7.150;2022-10-17T03:02:53;16.60;99.90
2929;DHT22;1474;51.460;7.150;2022-10-17T03:05:24;16.60;99.90
2929;DHT22;1474;51.460;7.150;2022-10-17T03:07:50;16.60;99.90
2929;DHT22;1474;51.460;7.150;2022-10-17T03:10:16;16.60;99.90
2929;DHT22;1474;51.460;7.150;2022-10-17T03:12:42;16.60;99.90
2929;DHT22;1474;51.460;7.150;2022-10-17T03:15:08;16.60;99.90
2929;DHT22;1474;51.460;7.150;2022-10-17T03:17:35;16.60;99.90
2929;DHT22;1474;51.460;7.150;2022-10-17T03:20:00;16.70;99.90
2929;DHT22;1474;51.460;7.150;2022-10-17T03:22:26;16.70;99.90
2929;DHT22;1474;51.460;7.150;2022-10-17T03:24:52;16.70;99.90
2929;DHT22;1474;51.460;7.150;2022-10-17T03:27:17;16.70;99.90
2929;DHT22;1474;51.460;7.150;2022-10-17T03:29:43;16.70;99.90
2929;DHT22;1474;51.460;7.150;2022-10-17T03:32:08;16.60;99.90
2929;DHT22;1474;51.460;7.150;2022-10-17T03:34:34;16.70;99.90
2929;DHT22;1474;51.460;7.150;2022-10-17T03:37:00;16.70;99.90
2929;DHT22;1474;51.460;7.150;2022-10-17T03:39:25;16.70;99.90
2929;DHT22;1474;51.460;7.150;2022-10-17T03:41:51;16.70;99.90
2929;DHT22;1474;51.460;7.150;2022-10-17T03:44:17;16.70;99.90
2929;DHT22;1474;51.460;7.150;2022-10-17T03:46:42;16.70;99.90
2929;DHT22;1474;51.460;7.150;2022-10-17T03:49:09;16.70;99.90
2929;DHT22;1474;51.460;7.150;2022-10-17T03:51:34;16.70;99.90
2929;DHT22;1474;51.460;7.150;2022-10-17T03:54:00;16.70;99.90
2929;DHT22;1474;51.460;7.150;2022-10-17T03:56:26;16.70;99.90
2929;DHT22;1474;51.460;7.150;2022-10-17T03:58:53;16.80;99.90
2929;DHT22;1474;51.460;7.150;2022-10-17T04:01:20;16.70;99.90
2929;DHT22;1474;51.460;7.150;2022-10-17T04:03:53;16.70;99.90
2929;DHT22;1474;51.460;7.150;2022-10-17T04:06:19;16.70;99.90
2929;DHT22;1474;51.460;7.150;2022-10-17T04:08:45;16.70;99.90
2929;DHT22;1474;51.460;7.150;2022-10-17T04:11:16;16.80;99.90
2929;DHT22;1474;51.460;7.150;2022-10-17T04:13:43;16.80;99.90
2929;DHT22;1474;51.460;7.150;2022-10-17T04:16:14;16.80;99.90
2929;DHT22;1474;51.460;7.150;2022-10-17T04:18:41;16.70;99.90
2929;DHT22;1474;51.460;7.150;2022-10-17T04:21:07;16.80;99.90
2929;DHT22;1474;51.460;7.150;2022-10-17T04:23:33;16.80;99.90
2929;DHT22;1474;51.460;7.150;2022-10-17T04:26:00;16.80;99.90
2929;DHT22;1474;51.460;7.150;2022-10-17T04:28:27;16.80;99.90
2929;DHT22;1474;51.460;7.150;2022-10-17T04:31:04;16.80;99.90
2929;DHT22;1474;51.460;7.150;2022-10-17T04:33:30;16.70;99.90
2929;DHT22;1474;51.460;7.150;2022-10-17T04:35:58;16.70;99.90
2929;DHT22;1474;51.460;7.150;2022-10-17T04:38:24;16.70;99.90
2929;DHT22;1474;51.460;7.150;2022-10-17T04:40:50;16.80;99.90
2929;DHT22;1474;51.460;7.150;2022-10-17T04:43:15;16.80;99.90
2929;DHT22;1474;51.460;7.150;2022-10-17T04:45:41;16.80;99.90
2929;DHT22;1474;51.460;7.150;2022-10-17T04:48:07;16.80;99.90
2929;DHT22;1474;51.460;7.150;2022-10-17T04:50:32;16.80;99.90
2929;DHT22;1474;51.460;7.150;2022-10-17T04:52:58;16.80;99.90
2929;DHT22;1474;51.460;7.150;2022-10-17T04:55:24;16.80;99.90
2929;DHT22;1474;51.460;7.150;2022-10-17T04:57:50;16.90;99.90
2929;DHT22;1474;51.460;7.150;2022-10-17T05:00:15;16.90;99.90
2929;DHT22;1474;51.460;7.150;2022-10-17T05:02:41;16.90;99.90
2929;DHT22;1474;51.460;7.150;2022-10-17T05:05:07;17.00;99.90
2929;DHT22;1474;51.460;7.150;2022-10-17T05:07:32;17.00;99.90
2929;DHT22;1474;51.460;7.150;2022-10-17T05:09:58;17.00;99.90
2929;DHT22;1474;51.460;7.150;2022-10-17T05:12:24;17.00;99.90
2929;DHT22;1474;51.460;7.150;2022-10-17T05:14:50;17.00;99.90
2929;DHT22;1474;51.460;7.150;2022-10-17T05:17:16;17.00;99.90
2929;DHT22;1474;51.460;7.150;2022-10-17T05:19:41;17.00;99.90
2929;DHT22;1474;51.460;7.150;2022-10-17T05:22:07;17.00;99.90
2929;DHT22;1474;51.460;7.150;2022-10-17T05:24:33;17.00;99.90
2929;DHT22;1474;51.460;7.150;2022-10-17T05:26:58;17.00;99.90
2929;DHT22;1474;51.460;7.150;2022-10-17T05:29:24;17.00;99.90
2929;DHT22;1474;51.460;7.150;2022-10-17T05:31:50;17.00;99.90
2929;DHT22;1474;51.460;7.150;2022-10-17T05:34:15;17.00;99.90
2929;DHT22;1474;51.460;7.150;2022-10-17T05:36:41;17.00;99.90
2929;DHT22;1474;51.460;7.150;2022-10-17T05:39:07;17.00;99.90
2929;DHT22;1474;51.460;7.150;2022-10-17T05:41:33;17.00;99.90
2929;DHT22;1474;51.460;7.150;2022-10-17T05:43:59;17.00;99.90
2929;DHT22;1474;51.460;7.150;2022-10-17T05:46:24;17.00;99.90
2929;DHT22;1474;51.460;7.150;2022-10-17T05:48:50;17.00;99.90
2929;DHT22;1474;51.460;7.150;2022-10-17T05:51:16;17.00;99.90
2929;DHT22;1474;51.460;7.150;2022-10-17T05:53:42;17.00;99.90
2929;DHT22;1474;51.460;7.150;2022-10-17T05:56:09;17.00;99.90
2929;DHT22;1474;51.460;7.150;2022-10-17T05:58:35;17.00;99.90
2929;DHT22;1474;51.460;7.150;2022-10-17T06:01:05;17.10;99.90
2929;DHT22;1474;51.460;7.150;2022-10-17T06:03:31;17.10;99.90
2929;DHT22;1474;51.460;7.150;2022-10-17T06:06:09;17.10;99.90
2929;DHT22;1474;51.460;7.150;2022-10-17T06:08:35;17.10;99.90
2929;DHT22;1474;51.460;7.150;2022-10-17T06:11:01;17.10;99.90
2929;DHT22;1474;51.460;7.150;2022-10-17T06:13:28;17.10;99.90
2929;DHT22;1474;51.460;7.150;2022-10-17T06:15:54;17.20;99.90
2929;DHT22;1474;51.460;7.150;2022-10-17T06:18:19;17.20;99.90
2929;DHT22;1474;51.460;7.150;2022-10-17T06:20:45;17.20;99.90
2929;DHT22;1474;51.460;7.150;2022-10-17T06:23:11;17.20;99.90
2929;DHT22;1474;51.460;7.150;2022-10-17T06:25:37;17.20;99.90
2929;DHT22;1474;51.460;7.150;2022-10-17T06:28:02;17.20;99.90
2929;DHT22;1474;51.460;7.150;2022-10-17T06:30:28;17.30;99.90
2929;DHT22;1474;51.460;7.150;2022-10-17T06:32:54;17.30;99.90
2929;DHT22;1474;51.460;7.150;2022-10-17T06:35:19;17.20;99.90
2929;DHT22;1474;51.460;7.150;2022-10-17T06:37:45;17.20;99.90
2929;DHT22;1474;51.460;7.150;2022-10-17T06:40:11;17.20;99.90
2929;DHT22;1474;51.460;7.150;2022-10-17T06:42:40;17.20;99.90
2929;DHT22;1474;51.460;7.150;2022-10-17T06:45:06;17.10;99.90
2929;DHT22;1474;51.460;7.150;2022-10-17T06:47:33;17.10;99.90
2929;DHT22;1474;51.460;7.150;2022-10-17T06:49:59;17.10;99.90
2929;DHT22;1474;51.460;7.150;2022-10-17T06:52:24;17.10;99.90
2929;DHT22;1474;51.460;7.150;2022-10-17T06:54:50;17.00;99.90
2929;DHT22;1474;51.460;7.150;2022-10-17T06:57:18;17.00;99.90
2929;DHT22;1474;51.460;7.150;2022-10-17T06:59:44;17.00;99.90
2929;DHT22;1474;51.460;7.150;2022-10-17T07:02:10;17.00;99.90
2929;DHT22;1474;51.460;7.150;2022-10-17T07:04:36;17.00;99.90
2929;DHT22;1474;51.460;7.150;2022-10-17T07:07:02;17.10;99.90
2929;DHT22;1474;51.460;7.150;2022-10-17T07:09:28;17.10;99.90
2929;DHT22;1474;51.460;7.150;2022-10-17T07:11:54;17.20;99.90
2929;DHT22;1474;51.460;7.150;2022-10-17T07:14:20;17.20;99.90
2929;DHT22;1474;51.460;7.150;2022-10-17T07:16:46;17.20;99.90
2929;DHT22;1474;51.460;7.150;2022-10-17T07:19:11;17.30;99.90
2929;DHT22;1474;51.460;7.150;2022-10-17T07:21:37;17.20;99.90
2929;DHT22;1474;51.460;7.150;2022-10-17T07:24:03;17.30;99.90
2929;DHT22;1474;51.460;7.150;2022-10-17T07:26:30;17.30;99.90
2929;DHT22;1474;51.460;7.150;2022-10-17T07:28:55;17.40;99.90
2929;DHT22;1474;51.460;7.150;2022-10-17T07:31:22;17.40;99.90
2929;DHT22;1474;51.460;7.150;2022-10-17T07:33:48;17.50;99.90
2929;DHT22;1474;51.460;7.150;2022-10-17T07:36:15;17.60;99.90
2929;DHT22;1474;51.460;7.150;2022-10-17T07:38:41;17.70;99.90
2929;DHT22;1474;51.460;7.150;2022-10-17T07:41:07;17.80;99.90
2929;DHT22;1474;51.460;7.150;2022-10-17T07:43:34;17.80;99.90
2929;DHT22;1474;51.460;7.150;2022-10-17T07:46:01;17.90;99.90
2929;DHT22;1474;51.460;7.150;2022-10-17T07:48:27;17.90;99.90
2929;DHT22;1474;51.460;7.150;2022-10-17T07:50:53;18.00;99.90
2929;DHT22;1474;51.460;7.150;2022-10-17T07:53:19;18.00;99.90
2929;DHT22;1474;51.460;7.150;2022-10-17T07:55:44;18.00;99.90
2929;DHT22;1474;51.460;7.150;2022-10-17T07:58:12;18.00;99.90
2929;DHT22;1474;51.460;7.150;2022-10-17T08:00:38;18.10;99.90
2929;DHT22;1474;51.460;7.150;2022-10-17T08:03:04;18.10;99.90
2929;DHT22;1474;51.460;7.150;2022-10-17T08:05:30;18.10;99.90
2929;DHT22;1474;51.460;7.150;2022-10-17T08:07:56;18.10;99.90
2929;DHT22;1474;51.460;7.150;2022-10-17T08:10:22;18.20;99.90
2929;DHT22;1474;51.460;7.150;2022-10-17T08:12:53;18.20;99.90
2929;DHT22;1474;51.460;7.150;2022-10-17T08:15:19;18.20;99.90
2929;DHT22;1474;51.460;7.150;2022-10-17T08:17:44;18.40;99.90
2929;DHT22;1474;51.460;7.150;2022-10-17T08:20:11;18.40;99.90
2929;DHT22;1474;51.460;7.150;2022-10-17T08:22:36;18.50;99.90
2929;DHT22;1474;51.460;7.150;2022-10-17T08:25:02;18.60;99.90
2929;DHT22;1474;51.460;7.150;2022-10-17T08:27:28;18.70;99.90
2929;DHT22;1474;51.460;7.150;2022-10-17T08:29:53;18.80;99.90
2929;DHT22;1474;51.460;7.150;2022-10-17T08:32:24;18.80;99.90
2929;DHT22;1474;51.460;7.150;2022-10-17T08:34:51;18.90;99.90
2929;DHT22;1474;51.460;7.150;2022-10-17T08:37:17;19.00;99.90
2929;DHT22;1474;51.460;7.150;2022-10-17T08:39:42;19.10;99.90
2929;DHT22;1474;51.460;7.150;2022-10-17T08:48:01;19.30;99.90
2929;DHT22;1474;51.460;7.150;2022-10-17T08:50:41;19.30;99.90
2929;DHT22;1474;51.460;7.150;2022-10-17T08:55:43;19.40;99.90
2929;DHT22;1474;51.460;7.150;2022-10-17T08:58:25;19.50;99.90
2929;DHT22;1474;51.460;7.150;2022-10-17T09:01:02;19.50;99.90
2929;DHT22;1474;51.460;7.150;2022-10-17T09:06:30;19.70;99.90
2929;DHT22;1474;51.460;7.150;2022-10-17T09:09:24;19.80;99.90
2929;DHT22;1474;51.460;7.150;2022-10-17T09:14:49;20.10;99.90
2929;DHT22;1474;51.460;7.150;2022-10-17T09:20:18;20.30;99.90
2929;DHT22;1474;51.460;7.150;2022-10-17T09:22:54;20.40;99.90
2929;DHT22;1474;51.460;7.150;2022-10-17T09:25:21;20.50;99.90
2929;DHT22;1474;51.460;7.150;2022-10-17T09:30:35;20.60;99.90
2929;DHT22;1474;51.460;7.150;2022-10-17T09:33:17;20.60;99.90
2929;DHT22;1474;51.460;7.150;2022-10-17T09:35:43;20.60;99.90
2929;DHT22;1474;51.460;7.150;2022-10-17T09:38:18;20.50;99.90
2929;DHT22;1474;51.460;7.150;2022-10-17T09:40:48;20.50;99.90
2929;DHT22;1474;51.460;7.150;2022-10-17T09:43:14;20.50;99.90
2929;DHT22;1474;51.460;7.150;2022-10-17T09:45:50;20.50;99.90
2929;DHT22;1474;51.460;7.150;2022-10-17T09:48:26;20.50;99.90
2929;DHT22;1474;51.460;7.150;2022-10-17T09:50:55;20.50;99.90
2929;DHT22;1474;51.460;7.150;2022-10-17T09:53:33;20.60;99.90
2929;DHT22;1474;51.460;7.150;2022-10-17T09:56:04;20.60;99.90
2929;DHT22;1474;51.460;7.150;2022-10-17T09:58:50;20.70;99.90
2929;DHT22;1474;51.460;7.150;2022-10-17T10:01:21;20.70;99.90
2929;DHT22;1474;51.460;7.150;2022-10-17T10:03:48;20.70;99.90
2929;DHT22;1474;51.460;7.150;2022-10-17T10:06:18;20.60;99.90
2929;DHT22;1474;51.460;7.150;2022-10-17T10:08:49;20.60;99.90
2929;DHT22;1474;51.460;7.150;2022-10-17T10:11:15;20.60;99.90
2929;DHT22;1474;51.460;7.150;2022-10-17T10:13:42;20.60;99.90
2929;DHT22;1474;51.460;7.150;2022-10-17T10:16:31;20.60;99.90
2929;DHT22;1474;51.460;7.150;2022-10-17T10:18:57;20.60;99.90
2929;DHT22;1474;51.460;7.150;2022-10-17T10:21:25;20.50;99.90
2929;DHT22;1474;51.460;7.150;2022-10-17T10:26:37;20.40;99.90
2929;DHT22;1474;51.460;7.150;2022-10-17T10:29:24;20.40;99.90
2929;DHT22;1474;51.460;7.150;2022-10-17T10:31:51;20.50;99.90
2929;DHT22;1474;51.460;7.150;2022-10-17T10:34:28;20.40;99.90
2929;DHT22;1474;51.460;7.150;2022-10-17T10:41:57;20.40;99.90
2929;DHT22;1474;51.460;7.150;2022-10-17T10:44:25;20.40;99.90
2929;DHT22;1474;51.460;7.150;2022-10-17T10:49:40;20.50;99.90
2929;DHT22;1474;51.460;7.150;2022-10-17T10:52:08;20.60;99.90
2929;DHT22;1474;51.460;7.150;2022-10-17T10:54:52;20.60;99.90
2929;DHT22;1474;51.460;7.150;2022-10-17T10:57:20;20.70;99.90
2929;DHT22;1474;51.460;7.150;2022-10-17T10:59:57;20.70;99.90
2929;DHT22;1474;51.460;7.150;2022-10-17T11:02:29;20.80;99.90
2929;DHT22;1474;51.460;7.150;2022-10-17T11:05:15;20.80;99.90
2929;DHT22;1474;51.460;7.150;2022-10-17T11:07:50;20.80;99.90
2929;DHT22;1474;51.460;7.150;2022-10-17T11:10:38;20.80;99.90
2929;DHT22;1474;51.460;7.150;2022-10-17T11:13:18;20.80;99.90
2929;DHT22;1474;51.460;7.150;2022-10-17T11:18:41;20.70;99.90
2929;DHT22;1474;51.460;7.150;2022-10-17T11:21:40;20.70;99.90
2929;DHT22;1474;51.460;7.150;2022-10-17T11:24:13;20.60;99.90
2929;DHT22;1474;51.460;7.150;2022-10-17T11:26:54;20.70;99.90
2929;DHT22;1474;51.460;7.150;2022-10-17T11:29:30;20.70;99.90
2929;DHT22;1474;51.460;7.150;2022-10-17T11:32:10;20.70;99.90
2929;DHT22;1474;51.460;7.150;2022-10-17T11:34:44;20.80;99.90
2929;DHT22;1474;51.460;7.150;2022-10-17T11:37:18;20.80;99.90
2929;DHT22;1474;51.460;7.150;2022-10-17T11:39:51;20.90;99.90
2929;DHT22;1474;51.460;7.150;2022-10-17T11:42:29;20.90;99.90
2929;DHT22;1474;51.460;7.150;2022-10-17T11:45:01;20.90;99.90
2929;DHT22;1474;51.460;7.150;2022-10-17T11:47:33;20.90;99.90
2929;DHT22;1474;51.460;7.150;2022-10-17T11:52:43;20.90;99.90
2929;DHT22;1474;51.460;7.150;2022-10-17T11:55:21;20.90;99.90
2929;DHT22;1474;51.460;7.150;2022-10-17T12:17:02;20.90;99.90
2929;DHT22;1474;51.460;7.150;2022-10-17T12:19:36;20.90;99.90
2929;DHT22;1474;51.460;7.150;2022-10-17T12:22:22;20.90;99.90
2929;DHT22;1474;51.460;7.150;2022-10-17T12:27:37;21.00;99.90
2929;DHT22;1474;51.460;7.150;2022-10-17T12:32:52;21.00;99.90
2929;DHT22;1474;51.460;7.150;2022-10-17T12:35:21;21.00;99.90
2929;DHT22;1474;51.460;7.150;2022-10-17T12:43:02;20.90;99.90
2929;DHT22;1474;51.460;7.150;2022-10-17T12:45:50;20.80;99.90
2929;DHT22;1474;51.460;7.150;2022-10-17T12:51:07;20.70;99.90
2929;DHT22;1474;51.460;7.150;2022-10-17T12:56:45;20.70;99.90
2929;DHT22;1474;51.460;7.150;2022-10-17T13:01:46;20.70;99.90
2929;DHT22;1474;51.460;7.150;2022-10-17T13:04:13;20.80;99.90
2929;DHT22;1474;51.460;7.150;2022-10-17T13:06:45;20.80;99.90
2929;DHT22;1474;51.460;7.150;2022-10-17T13:09:26;20.80;99.90
2929;DHT22;1474;51.460;7.150;2022-10-17T13:11:53;20.70;99.90
2929;DHT22;1474;51.460;7.150;2022-10-17T13:14:21;20.70;99.90
2929;DHT22;1474;51.460;7.150;2022-10-17T13:16:55;20.70;99.90
2929;DHT22;1474;51.460;7.150;2022-10-17T13:19:40;20.70;99.90
2929;DHT22;1474;51.460;7.150;2022-10-17T13:22:16;20.70;99.90
2929;DHT22;1474;51.460;7.150;2022-10-17T13:24:42;20.70;99.90
2929;DHT22;1474;51.460;7.150;2022-10-17T13:27:32;20.60;99.90
2929;DHT22;1474;51.460;7.150;2022-10-17T13:30:00;20.50;99.90
2929;DHT22;1474;51.460;7.150;2022-10-17T13:32:37;20.50;99.90
2929;DHT22;1474;51.460;7.150;2022-10-17T13:35:14;20.50;99.90
2929;DHT22;1474;51.460;7.150;2022-10-17T13:37:43;20.50;99.90
2929;DHT22;1474;51.460;7.150;2022-10-17T13:40:18;20.40;99.90
2929;DHT22;1474;51.460;7.150;2022-10-17T13:42:45;20.30;99.90
2929;DHT22;1474;51.460;7.150;2022-10-17T13:45:26;20.20;99.90
2929;DHT22;1474;51.460;7.150;2022-10-17T13:47:52;20.20;99.90
2929;DHT22;1474;51.460;7.150;2022-10-17T13:50:30;20.30;99.90
2929;DHT22;1474;51.460;7.150;2022-10-17T13:55:33;20.20;99.90
2929;DHT22;1474;51.460;7.150;2022-10-17T13:58:18;20.20;99.90
2929;DHT22;1474;51.460;7.150;2022-10-17T14:00:44;20.20;99.90
2929;DHT22;1474;51.460;7.150;2022-10-17T14:03:10;20.20;99.90
2929;DHT22;1474;51.460;7.150;2022-10-17T14:05:57;20.10;99.90
2929;DHT22;1474;51.460;7.150;2022-10-17T14:08:23;20.10;99.90
2929;DHT22;1474;51.460;7.150;2022-10-17T14:10:49;20.10;99.90
2929;DHT22;1474;51.460;7.150;2022-10-17T14:13:26;20.10;99.90
2929;DHT22;1474;51.460;7.150;2022-10-17T14:15:54;20.10;99.90
2929;DHT22;1474;51.460;7.150;2022-10-17T14:18:24;20.10;99.90
2929;DHT22;1474;51.460;7.150;2022-10-17T14:20:50;20.10;99.90
2929;DHT22;1474;51.460;7.150;2022-10-17T14:23:41;20.10;99.90
2929;DHT22;1474;51.460;7.150;2022-10-17T14:26:14;20.10;99.90
2929;DHT22;1474;51.460;7.150;2022-10-17T14:28:43;20.10;99.90
2929;DHT22;1474;51.460;7.150;2022-10-17T14:31:18;20.10;99.90
2929;DHT22;1474;51.460;7.150;2022-10-17T14:33:47;20.10;99.90
2929;DHT22;1474;51.460;7.150;2022-10-17T14:36:13;20.20;99.90
2929;DHT22;1474;51.460;7.150;2022-10-17T14:38:45;20.10;99.90
2929;DHT22;1474;51.460;7.150;2022-10-17T14:41:22;20.10;99.90
2929;DHT22;1474;51.460;7.150;2022-10-17T14:44:00;20.10;99.90
2929;DHT22;1474;51.460;7.150;2022-10-17T14:46:27;20.10;99.90
2929;DHT22;1474;51.460;7.150;2022-10-17T14:49:20;20.10;99.90
2929;DHT22;1474;51.460;7.150;2022-10-17T14:52:09;20.00;99.90
2929;DHT22;1474;51.460;7.150;2022-10-17T14:54:37;20.00;99.90
2929;DHT22;1474;51.460;7.150;2022-10-17T14:57:13;20.00;99.90
2929;DHT22;1474;51.460;7.150;2022-10-17T14:59:42;20.00;99.90
2929;DHT22;1474;51.460;7.150;2022-10-17T15:02:10;20.00;99.90
2929;DHT22;1474;51.460;7.150;2022-10-17T15:04:37;19.90;99.90
2929;DHT22;1474;51.460;7.150;2022-10-17T15:07:06;19.90;99.90
2929;DHT22;1474;51.460;7.150;2022-10-17T15:09:32;19.90;99.90
2929;DHT22;1474;51.460;7.150;2022-10-17T15:12:00;19.80;99.90
2929;DHT22;1474;51.460;7.150;2022-10-17T15:14:28;19.80;99.90
2929;DHT22;1474;51.460;7.150;2022-10-17T15:16:54;19.70;99.90
2929;DHT22;1474;51.460;7.150;2022-10-17T15:19:20;19.70;99.90
2929;DHT22;1474;51.460;7.150;2022-10-17T15:21:49;19.70;99.90
2929;DHT22;1474;51.460;7.150;2022-10-17T15:24:15;19.60;99.90
2929;DHT22;1474;51.460;7.150;2022-10-17T15:26:41;19.60;99.90
2929;DHT22;1474;51.460;7.150;2022-10-17T15:29:08;19.60;99.90
2929;DHT22;1474;51.460;7.150;2022-10-17T15:31:34;19.60;99.90
2929;DHT22;1474;51.460;7.150;2022-10-17T15:34:01;19.50;99.90
2929;DHT22;1474;51.460;7.150;2022-10-17T15:36:34;19.50;99.90
2929;DHT22;1474;51.460;7.150;2022-10-17T15:39:04;19.50;99.90
2929;DHT22;1474;51.460;7.150;2022-10-17T15:41:33;19.40;99.90
2929;DHT22;1474;51.460;7.150;2022-10-17T15:44:02;19.30;99.90
2929;DHT22;1474;51.460;7.150;2022-10-17T15:46:29;19.20;99.90
2929;DHT22;1474;51.460;7.150;2022-10-17T15:49:02;19.20;99.90
2929;DHT22;1474;51.460;7.150;2022-10-17T15:51:31;19.20;99.90
2929;DHT22;1474;51.460;7.150;2022-10-17T15:53:56;19.20;99.90
2929;DHT22;1474;51.460;7.150;2022-10-17T15:56:31;19.10;99.90
2929;DHT22;1474;51.460;7.150;2022-10-17T15:59:01;19.10;99.90
2929;DHT22;1474;51.460;7.150;2022-10-17T16:01:29;19.00;99.90
2929;DHT22;1474;51.460;7.150;2022-10-17T16:03:59;19.00;99.90
2929;DHT22;1474;51.460;7.150;2022-10-17T16:06:25;19.00;99.90
2929;DHT22;1474;51.460;7.150;2022-10-17T16:08:55;19.00;99.90
2929;DHT22;1474;51.460;7.150;2022-10-17T16:11:31;18.90;99.90
2929;DHT22;1474;51.460;7.150;2022-10-17T16:14:03;18.80;99.90
2929;DHT22;1474;51.460;7.150;2022-10-17T16:16:30;18.80;99.90
2929;DHT22;1474;51.460;7.150;2022-10-17T16:18:59;18.80;99.90
2929;DHT22;1474;51.460;7.150;2022-10-17T16:21:28;18.80;99.90
2929;DHT22;1474;51.460;7.150;2022-10-17T16:23:55;18.80;99.90
2929;DHT22;1474;51.460;7.150;2022-10-17T16:26:22;18.80;99.90
2929;DHT22;1474;51.460;7.150;2022-10-17T16:28:49;18.80;99.90
2929;DHT22;1474;51.460;7.150;2022-10-17T16:33:43;18.80;99.90
2929;DHT22;1474;51.460;7.150;2022-10-17T16:36:08;18.70;99.90
2929;DHT22;1474;51.460;7.150;2022-10-17T16:38:35;18.70;99.90
2929;DHT22;1474;51.460;7.150;2022-10-17T16:41:00;18.70;99.90
2929;DHT22;1474;51.460;7.150;2022-10-17T16:43:26;18.70;99.90
2929;DHT22;1474;51.460;7.150;2022-10-17T16:45:55;18.60;99.90
2929;DHT22;1474;51.460;7.150;2022-10-17T16:48:21;18.60;99.90
2929;DHT22;1474;51.460;7.150;2022-10-17T16:50:47;18.60;99.90
2929;DHT22;1474;51.460;7.150;2022-10-17T16:53:14;18.60;99.90
2929;DHT22;1474;51.460;7.150;2022-10-17T16:55:42;18.50;99.90
2929;DHT22;1474;51.460;7.150;2022-10-17T16:58:08;18.50;99.90
2929;DHT22;1474;51.460;7.150;2022-10-17T17:00:37;18.50;99.90
2929;DHT22;1474;51.460;7.150;2022-10-17T17:03:03;18.50;99.90
2929;DHT22;1474;51.460;7.150;2022-10-17T17:05:29;18.50;99.90
2929;DHT22;1474;51.460;7.150;2022-10-17T17:07:54;18.50;99.90
2929;DHT22;1474;51.460;7.150;2022-10-17T17:10:21;18.50;99.90
2929;DHT22;1474;51.460;7.150;2022-10-17T17:12:47;18.50;99.90
2929;DHT22;1474;51.460;7.150;2022-10-17T17:15:13;18.40;99.90
2929;DHT22;1474;51.460;7.150;2022-10-17T17:17:40;18.40;99.90
2929;DHT22;1474;51.460;7.150;2022-10-17T17:20:06;18.40;99.90
2929;DHT22;1474;51.460;7.150;2022-10-17T17:22:33;18.40;99.90
2929;DHT22;1474;51.460;7.150;2022-10-17T17:24:59;18.40;99.90
2929;DHT22;1474;51.460;7.150;2022-10-17T17:27:27;18.40;99.90
2929;DHT22;1474;51.460;7.150;2022-10-17T17:29:53;18.40;99.90
2929;DHT22;1474;51.460;7.150;2022-10-17T17:32:22;18.40;99.90
2929;DHT22;1474;51.460;7.150;2022-10-17T17:34:48;18.40;99.90
2929;DHT22;1474;51.460;7.150;2022-10-17T17:37:13;18.40;99.90
2929;DHT22;1474;51.460;7.150;2022-10-17T17:39:39;18.40;99.90
2929;DHT22;1474;51.460;7.150;2022-10-17T17:42:05;18.40;99.90
2929;DHT22;1474;51.460;7.150;2022-10-17T17:44:31;18.30;99.90
2929;DHT22;1474;51.460;7.150;2022-10-17T17:46:58;18.30;99.90
2929;DHT22;1474;51.460;7.150;2022-10-17T17:49:23;18.30;99.90
2929;DHT22;1474;51.460;7.150;2022-10-17T17:51:49;18.30;99.90
2929;DHT22;1474;51.460;7.150;2022-10-17T17:54:15;18.20;99.90
2929;DHT22;1474;51.460;7.150;2022-10-17T17:56:40;18.20;99.90
2929;DHT22;1474;51.460;7.150;2022-10-17T17:59:10;18.20;99.90
2929;DHT22;1474;51.460;7.150;2022-10-17T18:01:36;18.10;99.90